sensor_id;sensor_type;location;lat;lon;timestamp;P1;durP1;ratioP1;P2;durP2;ratioP2
13485;SDS011;6815;59.336;17.998;2023-07-20T00:00:25;2.35;;;1.05;;
13485;SDS011;6815;59.336;17.998;2023-07-20T00:02:51;1.15;;;0.82;;
13485;SDS011;6815;59.336;17.998;2023-07-20T00:05:16;1.00;;;0.90;;
13485;SDS011;6815;59.336;17.998;2023-07-20T00:07:43;2.03;;;0.75;;
13485;SDS011;6815;59.336;17.998;2023-07-20T00:10:09;0.70;;;0.60;;
13485;SDS011;6815;59.336;17.998;2023-07-20T00:12:35;2.28;;;0.73;;
13485;SDS011;6815;59.336;17.998;2023-07-20T00:15:00;0.90;;;0.80;;
13485;SDS011;6815;59.336;17.998;2023-07-20T00:17:26;1.33;;;0.85;;
13485;SDS011;6815;59.336;17.998;2023-07-20T00:19:51;2.75;;;1.27;;
13485;SDS011;6815;59.336;17.998;2023-07-20T00:22:17;1.50;;;0.88;;
13485;SDS011;6815;59.336;17.998;2023-07-20T00:24:42;2.50;;;0.90;;
13485;SDS011;6815;59.336;17.998;2023-07-20T00:27:07;2.50;;;0.77;;
13485;SDS011;6815;59.336;17.998;2023-07-20T00:29:34;2.28;;;0.90;;
13485;SDS011;6815;59.336;17.998;2023-07-20T00:32:00;2.60;;;0.88;;
13485;SDS011;6815;59.336;17.998;2023-07-20T00:34:25;1.77;;;0.90;;
13485;SDS011;6815;59.336;17.998;2023-07-20T00:36:51;1.55;;;0.70;;
13485;SDS011;6815;59.336;17.998;2023-07-20T00:39:16;3.10;;;1.27;;
13485;SDS011;6815;59.336;17.998;2023-07-20T00:41:42;1.30;;;0.85;;
13485;SDS011;6815;59.336;17.998;2023-07-20T00:44:07;3.08;;;0.95;;
13485;SDS011;6815;59.336;17.998;2023-07-20T00:46:32;2.03;;;0.95;;
13485;SDS011;6815;59.336;17.998;2023-07-20T00:48:58;2.20;;;1.10;;
13485;SDS011;6815;59.336;17.998;2023-07-20T00:51:24;1.52;;;1.10;;
13485;SDS011;6815;59.336;17.998;2023-07-20T00:53:51;1.88;;;0.82;;
13485;SDS011;6815;59.336;17.998;2023-07-20T00:56:17;1.75;;;1.05;;
13485;SDS011;6815;59.336;17.998;2023-07-20T00:58:43;2.15;;;0.90;;
13485;SDS011;6815;59.336;17.998;2023-07-20T01:01:09;2.53;;;1.02;;
13485;SDS011;6815;59.336;17.998;2023-07-20T01:03:34;2.97;;;1.10;;
13485;SDS011;6815;59.336;17.998;2023-07-20T01:06:15;2.88;;;1.10;;
13485;SDS011;6815;59.336;17.998;2023-07-20T01:09:23;3.75;;;1.38;;
13485;SDS011;6815;59.336;17.998;2023-07-20T01:14:32;2.92;;;1.05;;
13485;SDS011;6815;59.336;17.998;2023-07-20T01:16:59;1.90;;;0.95;;
13485;SDS011;6815;59.336;17.998;2023-07-20T01:19:24;3.87;;;1.10;;
13485;SDS011;6815;59.336;17.998;2023-07-20T01:22:37;3.38;;;1.00;;
13485;SDS011;6815;59.336;17.998;2023-07-20T01:24:42;2.13;;;0.90;;
13485;SDS011;6815;59.336;17.998;2023-07-20T01:31:09;3.13;;;1.00;;
13485;SDS011;6815;59.336;17.998;2023-07-20T01:33:40;3.95;;;1.10;;
13485;SDS011;6815;59.336;17.998;2023-07-20T01:36:07;2.40;;;1.38;;
13485;SDS011;6815;59.336;17.998;2023-07-20T01:38:35;4.03;;;1.10;;
13485;SDS011;6815;59.336;17.998;2023-07-20T01:41:01;3.65;;;1.20;;
13485;SDS011;6815;59.336;17.998;2023-07-20T01:43:27;2.72;;;1.20;;
13485;SDS011;6815;59.336;17.998;2023-07-20T01:45:53;5.03;;;1.30;;
13485;SDS011;6815;59.336;17.998;2023-07-20T01:48:18;5.63;;;1.48;;
13485;SDS011;6815;59.336;17.998;2023-07-20T01:50:44;3.90;;;1.38;;
13485;SDS011;6815;59.336;17.998;2023-07-20T01:53:09;3.30;;;1.05;;
13485;SDS011;6815;59.336;17.998;2023-07-20T01:55:35;4.63;;;1.25;;
13485;SDS011;6815;59.336;17.998;2023-07-20T01:58:00;3.85;;;1.05;;
13485;SDS011;6815;59.336;17.998;2023-07-20T02:00:26;2.17;;;1.00;;
13485;SDS011;6815;59.336;17.998;2023-07-20T02:02:52;3.85;;;1.30;;
13485;SDS011;6815;59.336;17.998;2023-07-20T02:05:17;2.20;;;1.02;;
13485;SDS011;6815;59.336;17.998;2023-07-20T02:07:43;4.60;;;1.27;;
13485;SDS011;6815;59.336;17.998;2023-07-20T02:10:09;4.82;;;1.10;;
13485;SDS011;6815;59.336;17.998;2023-07-20T02:12:34;3.47;;;1.27;;
13485;SDS011;6815;59.336;17.998;2023-07-20T02:15:01;5.28;;;1.02;;
13485;SDS011;6815;59.336;17.998;2023-07-20T02:17:27;2.78;;;1.00;;
13485;SDS011;6815;59.336;17.998;2023-07-20T02:19:53;2.25;;;1.20;;
13485;SDS011;6815;59.336;17.998;2023-07-20T02:22:19;3.90;;;1.23;;
13485;SDS011;6815;59.336;17.998;2023-07-20T02:24:45;2.97;;;1.23;;
13485;SDS011;6815;59.336;17.998;2023-07-20T02:27:11;4.27;;;1.40;;
13485;SDS011;6815;59.336;17.998;2023-07-20T02:29:36;3.03;;;1.38;;
13485;SDS011;6815;59.336;17.998;2023-07-20T02:32:02;2.30;;;1.33;;
13485;SDS011;6815;59.336;17.998;2023-07-20T02:34:27;3.70;;;1.40;;
13485;SDS011;6815;59.336;17.998;2023-07-20T02:36:53;1.50;;;1.20;;
13485;SDS011;6815;59.336;17.998;2023-07-20T02:39:21;4.83;;;1.30;;
13485;SDS011;6815;59.336;17.998;2023-07-20T02:41:47;3.40;;;1.10;;
13485;SDS011;6815;59.336;17.998;2023-07-20T02:44:13;4.93;;;1.30;;
13485;SDS011;6815;59.336;17.998;2023-07-20T02:46:39;3.78;;;1.30;;
13485;SDS011;6815;59.336;17.998;2023-07-20T02:49:04;3.33;;;1.20;;
13485;SDS011;6815;59.336;17.998;2023-07-20T02:51:29;4.93;;;1.30;;
13485;SDS011;6815;59.336;17.998;2023-07-20T02:53:55;3.05;;;1.40;;
13485;SDS011;6815;59.336;17.998;2023-07-20T02:56:20;5.40;;;1.27;;
13485;SDS011;6815;59.336;17.998;2023-07-20T02:58:48;2.85;;;1.30;;
13485;SDS011;6815;59.336;17.998;2023-07-20T03:01:13;5.10;;;1.23;;
13485;SDS011;6815;59.336;17.998;2023-07-20T03:03:40;6.70;;;1.57;;
13485;SDS011;6815;59.336;17.998;2023-07-20T03:06:10;2.40;;;1.45;;
13485;SDS011;6815;59.336;17.998;2023-07-20T03:08:36;4.40;;;1.05;;
13485;SDS011;6815;59.336;17.998;2023-07-20T03:11:02;4.97;;;1.40;;
13485;SDS011;6815;59.336;17.998;2023-07-20T03:13:27;4.17;;;1.53;;
13485;SDS011;6815;59.336;17.998;2023-07-20T03:15:53;4.47;;;1.15;;
13485;SDS011;6815;59.336;17.998;2023-07-20T03:18:18;2.77;;;1.20;;
13485;SDS011;6815;59.336;17.998;2023-07-20T03:20:44;3.10;;;1.17;;
13485;SDS011;6815;59.336;17.998;2023-07-20T03:23:10;5.40;;;1.53;;
13485;SDS011;6815;59.336;17.998;2023-07-20T03:25:35;2.23;;;1.20;;
13485;SDS011;6815;59.336;17.998;2023-07-20T03:28:02;5.60;;;1.27;;
13485;SDS011;6815;59.336;17.998;2023-07-20T03:30:28;5.73;;;1.57;;
13485;SDS011;6815;59.336;17.998;2023-07-20T03:32:53;4.28;;;1.42;;
13485;SDS011;6815;59.336;17.998;2023-07-20T03:35:18;3.60;;;1.50;;
13485;SDS011;6815;59.336;17.998;2023-07-20T03:37:44;4.00;;;1.45;;
13485;SDS011;6815;59.336;17.998;2023-07-20T03:40:09;5.13;;;1.30;;
13485;SDS011;6815;59.336;17.998;2023-07-20T03:42:35;4.20;;;1.40;;
13485;SDS011;6815;59.336;17.998;2023-07-20T03:45:01;4.07;;;1.37;;
13485;SDS011;6815;59.336;17.998;2023-07-20T03:47:27;4.13;;;1.60;;
13485;SDS011;6815;59.336;17.998;2023-07-20T03:49:53;3.88;;;1.35;;
13485;SDS011;6815;59.336;17.998;2023-07-20T03:52:18;4.88;;;1.52;;
13485;SDS011;6815;59.336;17.998;2023-07-20T03:54:44;5.78;;;1.55;;
13485;SDS011;6815;59.336;17.998;2023-07-20T03:57:09;5.22;;;1.38;;
13485;SDS011;6815;59.336;17.998;2023-07-20T03:59:34;4.63;;;1.50;;
13485;SDS011;6815;59.336;17.998;2023-07-20T04:02:02;9.37;;;1.80;;
13485;SDS011;6815;59.336;17.998;2023-07-20T04:04:27;8.60;;;1.80;;
13485;SDS011;6815;59.336;17.998;2023-07-20T04:06:54;4.97;;;1.50;;
13485;SDS011;6815;59.336;17.998;2023-07-20T04:09:19;5.65;;;1.60;;
13485;SDS011;6815;59.336;17.998;2023-07-20T04:11:45;5.28;;;1.70;;
13485;SDS011;6815;59.336;17.998;2023-07-20T04:14:10;6.15;;;1.83;;
13485;SDS011;6815;59.336;17.998;2023-07-20T04:16:36;3.85;;;1.67;;
13485;SDS011;6815;59.336;17.998;2023-07-20T04:19:02;4.32;;;1.50;;
13485;SDS011;6815;59.336;17.998;2023-07-20T04:21:27;6.50;;;1.40;;
13485;SDS011;6815;59.336;17.998;2023-07-20T04:23:53;5.83;;;1.77;;
13485;SDS011;6815;59.336;17.998;2023-07-20T04:26:18;3.72;;;1.58;;
13485;SDS011;6815;59.336;17.998;2023-07-20T04:28:43;4.70;;;1.50;;
13485;SDS011;6815;59.336;17.998;2023-07-20T04:31:10;4.65;;;1.60;;
13485;SDS011;6815;59.336;17.998;2023-07-20T04:33:39;4.30;;;1.80;;
13485;SDS011;6815;59.336;17.998;2023-07-20T04:36:05;6.55;;;1.77;;
13485;SDS011;6815;59.336;17.998;2023-07-20T04:38:30;4.85;;;1.90;;
13485;SDS011;6815;59.336;17.998;2023-07-20T04:40:56;5.53;;;1.73;;
13485;SDS011;6815;59.336;17.998;2023-07-20T04:43:21;3.80;;;1.73;;
13485;SDS011;6815;59.336;17.998;2023-07-20T04:45:47;5.43;;;1.83;;
13485;SDS011;6815;59.336;17.998;2023-07-20T04:48:16;5.60;;;1.80;;
13485;SDS011;6815;59.336;17.998;2023-07-20T04:50:43;2.67;;;1.65;;
13485;SDS011;6815;59.336;17.998;2023-07-20T04:53:10;7.25;;;2.08;;
13485;SDS011;6815;59.336;17.998;2023-07-20T04:55:36;6.80;;;2.58;;
13485;SDS011;6815;59.336;17.998;2023-07-20T04:58:02;4.72;;;1.73;;
13485;SDS011;6815;59.336;17.998;2023-07-20T05:00:29;3.95;;;1.55;;
13485;SDS011;6815;59.336;17.998;2023-07-20T05:02:55;6.28;;;2.08;;
13485;SDS011;6815;59.336;17.998;2023-07-20T05:05:21;8.52;;;2.28;;
13485;SDS011;6815;59.336;17.998;2023-07-20T05:07:46;6.55;;;2.05;;
13485;SDS011;6815;59.336;17.998;2023-07-20T05:10:12;4.97;;;1.85;;
13485;SDS011;6815;59.336;17.998;2023-07-20T05:12:37;4.30;;;1.90;;
13485;SDS011;6815;59.336;17.998;2023-07-20T05:15:03;7.95;;;2.08;;
13485;SDS011;6815;59.336;17.998;2023-07-20T05:17:29;7.47;;;2.03;;
13485;SDS011;6815;59.336;17.998;2023-07-20T05:19:54;5.88;;;1.80;;
13485;SDS011;6815;59.336;17.998;2023-07-20T05:22:21;5.68;;;1.67;;
13485;SDS011;6815;59.336;17.998;2023-07-20T05:24:47;5.72;;;1.90;;
13485;SDS011;6815;59.336;17.998;2023-07-20T05:27:12;5.60;;;2.03;;
13485;SDS011;6815;59.336;17.998;2023-07-20T05:29:37;3.15;;;1.45;;
13485;SDS011;6815;59.336;17.998;2023-07-20T05:32:08;3.97;;;1.90;;
13485;SDS011;6815;59.336;17.998;2023-07-20T05:34:34;6.07;;;2.03;;
13485;SDS011;6815;59.336;17.998;2023-07-20T05:37:00;3.63;;;1.70;;
13485;SDS011;6815;59.336;17.998;2023-07-20T05:39:25;3.80;;;1.88;;
13485;SDS011;6815;59.336;17.998;2023-07-20T05:41:51;5.80;;;1.88;;
13485;SDS011;6815;59.336;17.998;2023-07-20T05:44:16;3.10;;;1.70;;
13485;SDS011;6815;59.336;17.998;2023-07-20T05:46:41;4.70;;;1.80;;
13485;SDS011;6815;59.336;17.998;2023-07-20T05:49:07;3.35;;;1.88;;
13485;SDS011;6815;59.336;17.998;2023-07-20T05:51:32;5.90;;;1.67;;
13485;SDS011;6815;59.336;17.998;2023-07-20T05:53:57;6.30;;;2.42;;
13485;SDS011;6815;59.336;17.998;2023-07-20T05:56:23;5.30;;;2.08;;
13485;SDS011;6815;59.336;17.998;2023-07-20T05:58:48;4.15;;;1.98;;
13485;SDS011;6815;59.336;17.998;2023-07-20T06:01:14;6.88;;;1.70;;
13485;SDS011;6815;59.336;17.998;2023-07-20T06:03:39;4.93;;;1.90;;
13485;SDS011;6815;59.336;17.998;2023-07-20T06:06:04;5.35;;;2.10;;
13485;SDS011;6815;59.336;17.998;2023-07-20T06:08:30;5.43;;;1.88;;
13485;SDS011;6815;59.336;17.998;2023-07-20T06:10:56;3.45;;;1.80;;
13485;SDS011;6815;59.336;17.998;2023-07-20T06:13:22;6.38;;;2.05;;
13485;SDS011;6815;59.336;17.998;2023-07-20T06:15:48;4.80;;;1.70;;
13485;SDS011;6815;59.336;17.998;2023-07-20T06:18:14;4.55;;;1.90;;
13485;SDS011;6815;59.336;17.998;2023-07-20T06:20:39;3.55;;;2.00;;
13485;SDS011;6815;59.336;17.998;2023-07-20T06:23:04;3.72;;;1.73;;
13485;SDS011;6815;59.336;17.998;2023-07-20T06:25:30;5.03;;;2.15;;
13485;SDS011;6815;59.336;17.998;2023-07-20T06:27:55;6.05;;;2.05;;
13485;SDS011;6815;59.336;17.998;2023-07-20T06:30:21;3.78;;;1.98;;
13485;SDS011;6815;59.336;17.998;2023-07-20T06:32:47;5.03;;;1.90;;
13485;SDS011;6815;59.336;17.998;2023-07-20T06:35:13;4.60;;;1.90;;
13485;SDS011;6815;59.336;17.998;2023-07-20T06:37:38;5.80;;;1.77;;
13485;SDS011;6815;59.336;17.998;2023-07-20T06:40:04;6.05;;;2.10;;
13485;SDS011;6815;59.336;17.998;2023-07-20T06:42:30;5.50;;;1.77;;
13485;SDS011;6815;59.336;17.998;2023-07-20T06:44:56;5.68;;;2.13;;
13485;SDS011;6815;59.336;17.998;2023-07-20T06:47:22;4.13;;;1.73;;
13485;SDS011;6815;59.336;17.998;2023-07-20T06:49:47;4.05;;;1.60;;
13485;SDS011;6815;59.336;17.998;2023-07-20T06:52:13;3.30;;;1.80;;
13485;SDS011;6815;59.336;17.998;2023-07-20T06:54:38;3.13;;;1.88;;
13485;SDS011;6815;59.336;17.998;2023-07-20T06:57:04;4.38;;;2.17;;
13485;SDS011;6815;59.336;17.998;2023-07-20T06:59:30;4.15;;;1.88;;
13485;SDS011;6815;59.336;17.998;2023-07-20T07:01:55;4.55;;;2.10;;
13485;SDS011;6815;59.336;17.998;2023-07-20T07:04:21;4.63;;;2.03;;
13485;SDS011;6815;59.336;17.998;2023-07-20T07:06:46;5.05;;;1.83;;
13485;SDS011;6815;59.336;17.998;2023-07-20T07:09:13;4.60;;;1.85;;
13485;SDS011;6815;59.336;17.998;2023-07-20T07:11:38;5.63;;;2.10;;
13485;SDS011;6815;59.336;17.998;2023-07-20T07:14:04;6.80;;;2.45;;
13485;SDS011;6815;59.336;17.998;2023-07-20T07:16:29;4.70;;;1.70;;
13485;SDS011;6815;59.336;17.998;2023-07-20T07:18:55;5.72;;;2.22;;
13485;SDS011;6815;59.336;17.998;2023-07-20T07:21:20;5.80;;;2.30;;
13485;SDS011;6815;59.336;17.998;2023-07-20T07:23:46;6.95;;;2.15;;
13485;SDS011;6815;59.336;17.998;2023-07-20T07:26:12;4.63;;;1.95;;
13485;SDS011;6815;59.336;17.998;2023-07-20T07:28:37;4.35;;;1.90;;
13485;SDS011;6815;59.336;17.998;2023-07-20T07:31:06;5.25;;;2.33;;
13485;SDS011;6815;59.336;17.998;2023-07-20T07:33:32;3.70;;;1.83;;
13485;SDS011;6815;59.336;17.998;2023-07-20T07:35:58;6.40;;;2.10;;
13485;SDS011;6815;59.336;17.998;2023-07-20T07:38:23;5.90;;;1.85;;
13485;SDS011;6815;59.336;17.998;2023-07-20T07:40:48;3.45;;;1.60;;
13485;SDS011;6815;59.336;17.998;2023-07-20T07:43:14;6.55;;;1.92;;
13485;SDS011;6815;59.336;17.998;2023-07-20T07:45:40;5.43;;;1.90;;
13485;SDS011;6815;59.336;17.998;2023-07-20T07:48:05;4.30;;;1.98;;
13485;SDS011;6815;59.336;17.998;2023-07-20T07:50:32;3.55;;;1.60;;
13485;SDS011;6815;59.336;17.998;2023-07-20T07:52:58;4.07;;;1.80;;
13485;SDS011;6815;59.336;17.998;2023-07-20T07:55:24;5.22;;;1.88;;
13485;SDS011;6815;59.336;17.998;2023-07-20T07:57:51;3.63;;;1.58;;
13485;SDS011;6815;59.336;17.998;2023-07-20T08:00:17;4.63;;;1.70;;
13485;SDS011;6815;59.336;17.998;2023-07-20T08:02:44;3.53;;;1.70;;
13485;SDS011;6815;59.336;17.998;2023-07-20T08:05:11;2.63;;;1.35;;
13485;SDS011;6815;59.336;17.998;2023-07-20T08:07:37;1.80;;;1.52;;
13485;SDS011;6815;59.336;17.998;2023-07-20T08:10:03;3.33;;;1.77;;
13485;SDS011;6815;59.336;17.998;2023-07-20T08:12:29;4.10;;;1.80;;
13485;SDS011;6815;59.336;17.998;2023-07-20T08:14:55;2.70;;;1.60;;
13485;SDS011;6815;59.336;17.998;2023-07-20T08:17:20;3.88;;;1.70;;
13485;SDS011;6815;59.336;17.998;2023-07-20T08:19:46;3.97;;;1.60;;
13485;SDS011;6815;59.336;17.998;2023-07-20T08:22:11;5.50;;;2.05;;
13485;SDS011;6815;59.336;17.998;2023-07-20T08:24:40;2.85;;;1.63;;
13485;SDS011;6815;59.336;17.998;2023-07-20T08:27:06;3.47;;;1.40;;
13485;SDS011;6815;59.336;17.998;2023-07-20T08:29:32;3.60;;;1.40;;
13485;SDS011;6815;59.336;17.998;2023-07-20T08:31:57;3.17;;;1.23;;
13485;SDS011;6815;59.336;17.998;2023-07-20T08:34:23;1.83;;;1.08;;
13485;SDS011;6815;59.336;17.998;2023-07-20T08:36:48;4.32;;;1.48;;
13485;SDS011;6815;59.336;17.998;2023-07-20T08:39:14;3.80;;;1.40;;
13485;SDS011;6815;59.336;17.998;2023-07-20T08:41:39;3.25;;;1.50;;
13485;SDS011;6815;59.336;17.998;2023-07-20T08:44:07;3.67;;;1.42;;
13485;SDS011;6815;59.336;17.998;2023-07-20T08:46:33;2.60;;;1.35;;
13485;SDS011;6815;59.336;17.998;2023-07-20T08:49:00;2.33;;;1.33;;
13485;SDS011;6815;59.336;17.998;2023-07-20T08:51:27;2.85;;;1.20;;
13485;SDS011;6815;59.336;17.998;2023-07-20T08:53:54;4.25;;;1.45;;
13485;SDS011;6815;59.336;17.998;2023-07-20T08:56:19;2.38;;;1.30;;
13485;SDS011;6815;59.336;17.998;2023-07-20T08:58:45;2.70;;;1.35;;
13485;SDS011;6815;59.336;17.998;2023-07-20T09:01:12;3.15;;;1.73;;
13485;SDS011;6815;59.336;17.998;2023-07-20T09:03:38;4.55;;;1.80;;
13485;SDS011;6815;59.336;17.998;2023-07-20T09:06:04;2.60;;;1.45;;
13485;SDS011;6815;59.336;17.998;2023-07-20T09:08:31;2.80;;;1.63;;
13485;SDS011;6815;59.336;17.998;2023-07-20T09:10:56;4.00;;;1.42;;
13485;SDS011;6815;59.336;17.998;2023-07-20T09:13:22;3.03;;;1.70;;
13485;SDS011;6815;59.336;17.998;2023-07-20T09:15:53;2.78;;;1.35;;
13485;SDS011;6815;59.336;17.998;2023-07-20T09:18:23;3.22;;;1.45;;
13485;SDS011;6815;59.336;17.998;2023-07-20T09:20:53;3.53;;;1.40;;
13485;SDS011;6815;59.336;17.998;2023-07-20T09:23:31;1.52;;;1.25;;
13485;SDS011;6815;59.336;17.998;2023-07-20T09:25:57;2.38;;;1.50;;
13485;SDS011;6815;59.336;17.998;2023-07-20T09:28:23;1.45;;;1.20;;
13485;SDS011;6815;59.336;17.998;2023-07-20T09:30:48;3.97;;;1.70;;
13485;SDS011;6815;59.336;17.998;2023-07-20T09:33:22;3.45;;;1.67;;
13485;SDS011;6815;59.336;17.998;2023-07-20T09:35:48;6.00;;;1.60;;
13485;SDS011;6815;59.336;17.998;2023-07-20T09:38:14;3.30;;;1.67;;
13485;SDS011;6815;59.336;17.998;2023-07-20T09:40:40;3.17;;;1.27;;
13485;SDS011;6815;59.336;17.998;2023-07-20T09:43:09;4.68;;;1.80;;
13485;SDS011;6815;59.336;17.998;2023-07-20T09:45:41;3.63;;;1.70;;
13485;SDS011;6815;59.336;17.998;2023-07-20T09:48:07;3.08;;;1.42;;
13485;SDS011;6815;59.336;17.998;2023-07-20T09:50:42;3.38;;;1.50;;
13485;SDS011;6815;59.336;17.998;2023-07-20T09:53:14;3.00;;;1.60;;
13485;SDS011;6815;59.336;17.998;2023-07-20T09:55:43;3.65;;;1.73;;
13485;SDS011;6815;59.336;17.998;2023-07-20T09:58:09;2.17;;;1.60;;
13485;SDS011;6815;59.336;17.998;2023-07-20T10:00:36;4.32;;;1.38;;
13485;SDS011;6815;59.336;17.998;2023-07-20T10:03:04;3.67;;;1.45;;
13485;SDS011;6815;59.336;17.998;2023-07-20T10:05:33;2.75;;;1.30;;
13485;SDS011;6815;59.336;17.998;2023-07-20T10:08:01;2.30;;;1.50;;
13485;SDS011;6815;59.336;17.998;2023-07-20T10:10:28;1.98;;;1.38;;
13485;SDS011;6815;59.336;17.998;2023-07-20T10:12:55;2.58;;;1.40;;
13485;SDS011;6815;59.336;17.998;2023-07-20T10:15:28;2.00;;;1.60;;
13485;SDS011;6815;59.336;17.998;2023-07-20T10:20:28;2.85;;;1.30;;
13485;SDS011;6815;59.336;17.998;2023-07-20T10:22:55;1.85;;;1.30;;
13485;SDS011;6815;59.336;17.998;2023-07-20T10:25:23;4.40;;;1.77;;
13485;SDS011;6815;59.336;17.998;2023-07-20T10:27:49;2.63;;;1.40;;
13485;SDS011;6815;59.336;17.998;2023-07-20T10:30:15;2.03;;;1.40;;
13485;SDS011;6815;59.336;17.998;2023-07-20T10:32:42;3.50;;;1.50;;
13485;SDS011;6815;59.336;17.998;2023-07-20T10:35:13;2.03;;;1.50;;
13485;SDS011;6815;59.336;17.998;2023-07-20T10:37:51;3.50;;;1.40;;
13485;SDS011;6815;59.336;17.998;2023-07-20T10:40:31;2.50;;;1.33;;
13485;SDS011;6815;59.336;17.998;2023-07-20T10:43:01;2.58;;;1.40;;
13485;SDS011;6815;59.336;17.998;2023-07-20T10:45:35;1.60;;;1.17;;
13485;SDS011;6815;59.336;17.998;2023-07-20T10:48:17;2.38;;;1.38;;
13485;SDS011;6815;59.336;17.998;2023-07-20T10:53:41;3.70;;;1.50;;
13485;SDS011;6815;59.336;17.998;2023-07-20T10:56:07;2.70;;;1.35;;
13485;SDS011;6815;59.336;17.998;2023-07-20T10:58:45;5.50;;;1.73;;
13485;SDS011;6815;59.336;17.998;2023-07-20T11:01:17;3.00;;;1.30;;
13485;SDS011;6815;59.336;17.998;2023-07-20T11:03:42;2.65;;;1.63;;
13485;SDS011;6815;59.336;17.998;2023-07-20T11:09:11;3.55;;;1.42;;
13485;SDS011;6815;59.336;17.998;2023-07-20T11:11:39;1.60;;;1.17;;
13485;SDS011;6815;59.336;17.998;2023-07-20T11:14:09;1.17;;;1.00;;
13485;SDS011;6815;59.336;17.998;2023-07-20T11:16:36;1.38;;;1.15;;
13485;SDS011;6815;59.336;17.998;2023-07-20T11:19:04;2.05;;;1.10;;
13485;SDS011;6815;59.336;17.998;2023-07-20T11:21:37;1.30;;;0.90;;
13485;SDS011;6815;59.336;17.998;2023-07-20T11:24:06;1.30;;;0.95;;
13485;SDS011;6815;59.336;17.998;2023-07-20T11:26:54;1.42;;;1.00;;
13485;SDS011;6815;59.336;17.998;2023-07-20T11:29:20;0.82;;;0.80;;
13485;SDS011;6815;59.336;17.998;2023-07-20T11:31:48;1.45;;;0.70;;
13485;SDS011;6815;59.336;17.998;2023-07-20T11:34:14;1.50;;;0.70;;
13485;SDS011;6815;59.336;17.998;2023-07-20T11:36:43;2.10;;;0.80;;
13485;SDS011;6815;59.336;17.998;2023-07-20T11:39:10;1.67;;;0.90;;
13485;SDS011;6815;59.336;17.998;2023-07-20T11:41:37;2.28;;;0.88;;
13485;SDS011;6815;59.336;17.998;2023-07-20T11:44:06;2.25;;;1.02;;
13485;SDS011;6815;59.336;17.998;2023-07-20T11:46:32;2.63;;;1.20;;
13485;SDS011;6815;59.336;17.998;2023-07-20T11:48:58;1.40;;;1.08;;
13485;SDS011;6815;59.336;17.998;2023-07-20T11:51:25;1.35;;;0.93;;
13485;SDS011;6815;59.336;17.998;2023-07-20T11:53:52;1.02;;;0.80;;
13485;SDS011;6815;59.336;17.998;2023-07-20T11:56:17;3.95;;;0.95;;
13485;SDS011;6815;59.336;17.998;2023-07-20T11:58:43;3.08;;;1.20;;
13485;SDS011;6815;59.336;17.998;2023-07-20T12:01:09;0.90;;;0.80;;
13485;SDS011;6815;59.336;17.998;2023-07-20T12:03:36;1.20;;;0.63;;
13485;SDS011;6815;59.336;17.998;2023-07-20T12:06:08;0.88;;;0.80;;
13485;SDS011;6815;59.336;17.998;2023-07-20T12:08:34;1.98;;;0.98;;
13485;SDS011;6815;59.336;17.998;2023-07-20T12:11:00;2.45;;;0.98;;
13485;SDS011;6815;59.336;17.998;2023-07-20T12:13:38;1.30;;;0.90;;
13485;SDS011;6815;59.336;17.998;2023-07-20T12:16:15;1.67;;;1.10;;
13485;SDS011;6815;59.336;17.998;2023-07-20T12:18:44;1.88;;;1.15;;
13485;SDS011;6815;59.336;17.998;2023-07-20T12:21:10;2.10;;;1.30;;
13485;SDS011;6815;59.336;17.998;2023-07-20T12:23:39;2.38;;;1.48;;
13485;SDS011;6815;59.336;17.998;2023-07-20T12:26:06;1.60;;;1.33;;
13485;SDS011;6815;59.336;17.998;2023-07-20T12:28:35;2.55;;;1.45;;
13485;SDS011;6815;59.336;17.998;2023-07-20T12:31:03;2.80;;;1.40;;
13485;SDS011;6815;59.336;17.998;2023-07-20T12:33:29;1.65;;;1.20;;
13485;SDS011;6815;59.336;17.998;2023-07-20T12:35:54;1.55;;;1.35;;
13485;SDS011;6815;59.336;17.998;2023-07-20T12:38:21;3.95;;;1.60;;
13485;SDS011;6815;59.336;17.998;2023-07-20T12:40:48;3.58;;;1.25;;
13485;SDS011;6815;59.336;17.998;2023-07-20T12:43:14;1.60;;;1.20;;
13485;SDS011;6815;59.336;17.998;2023-07-20T12:45:39;3.13;;;1.50;;
13485;SDS011;6815;59.336;17.998;2023-07-20T12:48:06;1.65;;;1.20;;
13485;SDS011;6815;59.336;17.998;2023-07-20T12:50:31;2.60;;;1.33;;
13485;SDS011;6815;59.336;17.998;2023-07-20T12:52:57;2.22;;;1.20;;
13485;SDS011;6815;59.336;17.998;2023-07-20T12:55:22;1.75;;;1.25;;
13485;SDS011;6815;59.336;17.998;2023-07-20T12:57:48;1.40;;;1.30;;
13485;SDS011;6815;59.336;17.998;2023-07-20T13:00:14;2.92;;;1.30;;
13485;SDS011;6815;59.336;17.998;2023-07-20T13:02:40;2.97;;;1.30;;
13485;SDS011;6815;59.336;17.998;2023-07-20T13:05:06;3.17;;;1.20;;
13485;SDS011;6815;59.336;17.998;2023-07-20T13:07:35;2.85;;;1.08;;
13485;SDS011;6815;59.336;17.998;2023-07-20T13:10:02;2.35;;;0.90;;
13485;SDS011;6815;59.336;17.998;2023-07-20T13:12:29;2.53;;;1.40;;
13485;SDS011;6815;59.336;17.998;2023-07-20T13:14:56;2.20;;;1.25;;
13485;SDS011;6815;59.336;17.998;2023-07-20T13:17:24;2.85;;;1.20;;
13485;SDS011;6815;59.336;17.998;2023-07-20T13:19:50;1.88;;;1.20;;
13485;SDS011;6815;59.336;17.998;2023-07-20T13:22:15;1.48;;;1.10;;
13485;SDS011;6815;59.336;17.998;2023-07-20T13:24:41;2.47;;;1.23;;
13485;SDS011;6815;59.336;17.998;2023-07-20T13:27:07;2.10;;;1.13;;
13485;SDS011;6815;59.336;17.998;2023-07-20T13:29:32;1.95;;;1.15;;
13485;SDS011;6815;59.336;17.998;2023-07-20T13:31:58;2.53;;;1.23;;
13485;SDS011;6815;59.336;17.998;2023-07-20T13:34:24;1.98;;;1.17;;
13485;SDS011;6815;59.336;17.998;2023-07-20T13:36:51;2.03;;;1.20;;
13485;SDS011;6815;59.336;17.998;2023-07-20T13:39:16;2.35;;;1.10;;
13485;SDS011;6815;59.336;17.998;2023-07-20T13:41:42;2.33;;;1.38;;
13485;SDS011;6815;59.336;17.998;2023-07-20T13:44:07;1.20;;;1.00;;
13485;SDS011;6815;59.336;17.998;2023-07-20T13:46:33;3.85;;;1.40;;
13485;SDS011;6815;59.336;17.998;2023-07-20T13:48:59;1.35;;;0.95;;
13485;SDS011;6815;59.336;17.998;2023-07-20T13:51:24;2.50;;;1.23;;
13485;SDS011;6815;59.336;17.998;2023-07-20T13:53:50;2.10;;;1.05;;
13485;SDS011;6815;59.336;17.998;2023-07-20T13:56:15;1.20;;;1.10;;
13485;SDS011;6815;59.336;17.998;2023-07-20T13:58:41;1.73;;;1.13;;
13485;SDS011;6815;59.336;17.998;2023-07-20T14:01:07;2.55;;;1.20;;
13485;SDS011;6815;59.336;17.998;2023-07-20T14:03:32;1.38;;;0.95;;
13485;SDS011;6815;59.336;17.998;2023-07-20T14:05:58;1.52;;;1.08;;
13485;SDS011;6815;59.336;17.998;2023-07-20T14:08:23;2.28;;;1.10;;
13485;SDS011;6815;59.336;17.998;2023-07-20T14:10:48;5.25;;;1.15;;
13485;SDS011;6815;59.336;17.998;2023-07-20T14:13:14;1.63;;;1.02;;
13485;SDS011;6815;59.336;17.998;2023-07-20T14:15:39;2.85;;;1.23;;
13485;SDS011;6815;59.336;17.998;2023-07-20T14:18:05;1.33;;;1.10;;
13485;SDS011;6815;59.336;17.998;2023-07-20T14:20:30;1.75;;;1.00;;
13485;SDS011;6815;59.336;17.998;2023-07-20T14:22:56;2.75;;;1.10;;
13485;SDS011;6815;59.336;17.998;2023-07-20T14:25:21;2.95;;;1.10;;
13485;SDS011;6815;59.336;17.998;2023-07-20T14:27:47;1.30;;;0.95;;
13485;SDS011;6815;59.336;17.998;2023-07-20T14:30:12;1.05;;;0.80;;
13485;SDS011;6815;59.336;17.998;2023-07-20T14:32:38;1.17;;;0.85;;
13485;SDS011;6815;59.336;17.998;2023-07-20T14:35:04;1.30;;;0.95;;
13485;SDS011;6815;59.336;17.998;2023-07-20T14:37:31;1.95;;;1.20;;
13485;SDS011;6815;59.336;17.998;2023-07-20T14:39:56;1.40;;;1.05;;
13485;SDS011;6815;59.336;17.998;2023-07-20T14:42:22;2.88;;;1.10;;
13485;SDS011;6815;59.336;17.998;2023-07-20T14:44:47;1.40;;;1.02;;
13485;SDS011;6815;59.336;17.998;2023-07-20T14:47:13;2.13;;;1.10;;
13485;SDS011;6815;59.336;17.998;2023-07-20T14:49:38;3.15;;;1.10;;
13485;SDS011;6815;59.336;17.998;2023-07-20T14:52:04;1.33;;;0.85;;
13485;SDS011;6815;59.336;17.998;2023-07-20T14:54:29;1.73;;;1.20;;
13485;SDS011;6815;59.336;17.998;2023-07-20T14:56:55;3.40;;;1.20;;
13485;SDS011;6815;59.336;17.998;2023-07-20T14:59:21;4.60;;;1.27;;